Stolford, United Kingdom

6:27 PM BST on June 28, 2017 (GMT +0100)
Stockland Bristol, Somerset, UK | | Change Station

Elev 20 ft 51.19 °N, 3.08 °W | Updated 2 minutes ago

Rain
Rain
59.5 °F
Feels Like 59.5 °F
N
3.8
Wind Variable Wind from NW
Gusts 6.0 mph

Today
High -- | Low -- °F
--% Chance of Precip.
Yesterday
High -- | Low -- °F
Precip. -- in
Pressure 29.44 in
Visibility 6.2 miles
Clouds Few 1200 ft
Mostly Cloudy 1800 ft
Overcast 4200 ft
Dew Point 58 °F
Humidity 95%
Rainfall 0.43 in
Snow Depth Not available.
4:59 AM 9:31 PM
Waxing Crescent, 27% visible
METAR EGFF 281720Z AUTO 04009KT 9999 -RA FEW012 BKN018 OVC042 15/14 Q0997
Pressure 29.44 in
Visibility 6.2 miles
Clouds Few 1200 ft
Mostly Cloudy 1800 ft
Overcast 4200 ft
Dew Point 58 °F
Humidity 95%
Rainfall 0.43 in
Snow Depth Not available.
4:59 AM 9:31 PM
Waxing Crescent, 27% visible
METAR EGFF 281720Z AUTO 04009KT 9999 -RA FEW012 BKN018 OVC042 15/14 Q0997

Get Severe Weather Alerts

Thanks for signing up!

Be on the lookout for a verification email in your inbox.

You'll start receiving the daily forecast at 6 AM.

×

10-Day Weather Forecast

×

Almanac

Astronomy

Jun. 28, 2017 Rise Set
Actual Time
Civil Twilight
Nautical Twilight
Astronomical Twilight
Moon
Length of Visible Light
Length of Day
Tomorrow will be .
, % of the Moon is Illuminated

Today's Extremes

Country Highs Country Lows

Community

WunderPhotos

Category 6

Welcome to Category 6. This is the collective home for Weather Underground's featured writeups by Dr. Jeff Masters (right), Bob Henson (left), Chris Burt, and other regular contributors.

Nearby

Air Quality

  Air Quality AQ Index Pollutant
Not available.

Snow Depth

Station Depth Elevation

Earthquake Activity

City Distance Mag. Time & Date
Minimum magnitude displayed is 2.5.

Coastal Water Temperatures

Place Temperature

Stations

Nearby Weather Stations

Station Location Temp. Windchill Dew Point Humidity Wind Precip. Elev Updated Type